sensor_id;sensor_type;location;lat;lon;timestamp;P1;durP1;ratioP1;P2;durP2;ratioP2
73575;SDS011;61859;49.204;8.140;2022-08-16T00:00:41;4.03;;;3.63;;
73575;SDS011;61859;49.204;8.140;2022-08-16T00:03:08;5.43;;;3.37;;
73575;SDS011;61859;49.204;8.140;2022-08-16T00:05:35;3.43;;;3.13;;
73575;SDS011;61859;49.204;8.140;2022-08-16T00:08:01;3.17;;;2.97;;
73575;SDS011;61859;49.204;8.140;2022-08-16T00:10:27;5.30;;;3.20;;
73575;SDS011;61859;49.204;8.140;2022-08-16T00:12:57;3.83;;;3.43;;
73575;SDS011;61859;49.204;8.140;2022-08-16T00:15:26;4.10;;;3.27;;
73575;SDS011;61859;49.204;8.140;2022-08-16T00:17:57;4.00;;;3.60;;
73575;SDS011;61859;49.204;8.140;2022-08-16T00:20:23;5.30;;;3.73;;
73575;SDS011;61859;49.204;8.140;2022-08-16T00:22:49;5.40;;;3.53;;
73575;SDS011;61859;49.204;8.140;2022-08-16T00:25:15;4.00;;;3.40;;
73575;SDS011;61859;49.204;8.140;2022-08-16T00:27:42;4.37;;;3.37;;
73575;SDS011;61859;49.204;8.140;2022-08-16T00:30:09;4.03;;;3.50;;
73575;SDS011;61859;49.204;8.140;2022-08-16T00:32:37;6.03;;;3.60;;
73575;SDS011;61859;49.204;8.140;2022-08-16T00:35:04;3.73;;;3.37;;
73575;SDS011;61859;49.204;8.140;2022-08-16T00:37:31;4.27;;;3.80;;
73575;SDS011;61859;49.204;8.140;2022-08-16T00:39:56;4.57;;;3.50;;
73575;SDS011;61859;49.204;8.140;2022-08-16T00:42:22;4.13;;;3.63;;
73575;SDS011;61859;49.204;8.140;2022-08-16T00:44:54;3.90;;;3.50;;
73575;SDS011;61859;49.204;8.140;2022-08-16T00:47:23;3.90;;;3.60;;
73575;SDS011;61859;49.204;8.140;2022-08-16T00:49:50;4.13;;;3.40;;
73575;SDS011;61859;49.204;8.140;2022-08-16T00:52:17;4.30;;;3.43;;
73575;SDS011;61859;49.204;8.140;2022-08-16T00:54:42;3.70;;;3.40;;
73575;SDS011;61859;49.204;8.140;2022-08-16T00:57:08;5.07;;;3.87;;
73575;SDS011;61859;49.204;8.140;2022-08-16T00:59:35;3.33;;;3.03;;
73575;SDS011;61859;49.204;8.140;2022-08-16T01:02:04;3.40;;;3.10;;
73575;SDS011;61859;49.204;8.140;2022-08-16T01:04:31;3.30;;;3.00;;
73575;SDS011;61859;49.204;8.140;2022-08-16T01:06:58;5.13;;;3.43;;
73575;SDS011;61859;49.204;8.140;2022-08-16T01:09:26;3.60;;;3.30;;
73575;SDS011;61859;49.204;8.140;2022-08-16T01:11:52;3.83;;;3.53;;
73575;SDS011;61859;49.204;8.140;2022-08-16T01:14:20;3.60;;;3.30;;
73575;SDS011;61859;49.204;8.140;2022-08-16T01:16:48;4.03;;;3.70;;
73575;SDS011;61859;49.204;8.140;2022-08-16T01:19:32;4.97;;;3.70;;
73575;SDS011;61859;49.204;8.140;2022-08-16T01:22:04;6.00;;;3.70;;
73575;SDS011;61859;49.204;8.140;2022-08-16T01:24:41;6.00;;;4.27;;
73575;SDS011;61859;49.204;8.140;2022-08-16T01:29:40;5.40;;;4.03;;
73575;SDS011;61859;49.204;8.140;2022-08-16T01:32:18;5.30;;;4.10;;
73575;SDS011;61859;49.204;8.140;2022-08-16T01:34:44;4.23;;;3.63;;
73575;SDS011;61859;49.204;8.140;2022-08-16T01:37:10;5.03;;;3.93;;
73575;SDS011;61859;49.204;8.140;2022-08-16T01:39:38;5.53;;;4.20;;
73575;SDS011;61859;49.204;8.140;2022-08-16T01:42:05;4.77;;;3.87;;
73575;SDS011;61859;49.204;8.140;2022-08-16T01:44:33;4.30;;;3.90;;
73575;SDS011;61859;49.204;8.140;2022-08-16T01:47:00;4.50;;;4.10;;
73575;SDS011;61859;49.204;8.140;2022-08-16T01:49:27;5.27;;;4.10;;
73575;SDS011;61859;49.204;8.140;2022-08-16T01:52:30;4.43;;;3.87;;
73575;SDS011;61859;49.204;8.140;2022-08-16T01:54:49;5.57;;;4.13;;
73575;SDS011;61859;49.204;8.140;2022-08-16T01:57:15;3.90;;;3.57;;
73575;SDS011;61859;49.204;8.140;2022-08-16T01:59:40;4.40;;;4.03;;
73575;SDS011;61859;49.204;8.140;2022-08-16T02:02:06;4.13;;;3.60;;
73575;SDS011;61859;49.204;8.140;2022-08-16T02:04:33;4.80;;;4.30;;
73575;SDS011;61859;49.204;8.140;2022-08-16T02:06:59;3.80;;;3.50;;
73575;SDS011;61859;49.204;8.140;2022-08-16T02:09:27;4.27;;;3.80;;
73575;SDS011;61859;49.204;8.140;2022-08-16T02:11:58;4.23;;;3.80;;
73575;SDS011;61859;49.204;8.140;2022-08-16T02:14:26;4.27;;;3.90;;
73575;SDS011;61859;49.204;8.140;2022-08-16T02:16:54;4.27;;;3.87;;
73575;SDS011;61859;49.204;8.140;2022-08-16T02:19:21;4.20;;;3.83;;
73575;SDS011;61859;49.204;8.140;2022-08-16T02:21:49;4.33;;;3.93;;
73575;SDS011;61859;49.204;8.140;2022-08-16T02:24:18;4.10;;;3.80;;
73575;SDS011;61859;49.204;8.140;2022-08-16T02:26:43;7.07;;;4.53;;
73575;SDS011;61859;49.204;8.140;2022-08-16T02:29:09;4.20;;;3.80;;
73575;SDS011;61859;49.204;8.140;2022-08-16T02:31:34;4.33;;;3.93;;
73575;SDS011;61859;49.204;8.140;2022-08-16T02:34:01;4.87;;;3.87;;
73575;SDS011;61859;49.204;8.140;2022-08-16T02:36:26;4.63;;;4.23;;
73575;SDS011;61859;49.204;8.140;2022-08-16T02:38:52;4.70;;;4.17;;
73575;SDS011;61859;49.204;8.140;2022-08-16T02:41:18;6.10;;;4.10;;
73575;SDS011;61859;49.204;8.140;2022-08-16T02:43:44;4.07;;;3.67;;
73575;SDS011;61859;49.204;8.140;2022-08-16T02:46:10;4.57;;;3.80;;
73575;SDS011;61859;49.204;8.140;2022-08-16T02:48:36;4.43;;;4.13;;
73575;SDS011;61859;49.204;8.140;2022-08-16T02:51:03;5.47;;;4.47;;
73575;SDS011;61859;49.204;8.140;2022-08-16T02:53:30;5.47;;;4.20;;
73575;SDS011;61859;49.204;8.140;2022-08-16T02:55:56;4.40;;;3.97;;
73575;SDS011;61859;49.204;8.140;2022-08-16T02:58:23;5.53;;;3.97;;
73575;SDS011;61859;49.204;8.140;2022-08-16T03:00:49;4.80;;;4.40;;
73575;SDS011;61859;49.204;8.140;2022-08-16T03:03:15;4.60;;;4.20;;
73575;SDS011;61859;49.204;8.140;2022-08-16T03:05:41;4.90;;;4.40;;
73575;SDS011;61859;49.204;8.140;2022-08-16T03:08:07;4.73;;;4.13;;
73575;SDS011;61859;49.204;8.140;2022-08-16T03:10:33;5.50;;;5.00;;
73575;SDS011;61859;49.204;8.140;2022-08-16T03:12:59;6.17;;;4.50;;
73575;SDS011;61859;49.204;8.140;2022-08-16T03:15:25;4.87;;;4.20;;
73575;SDS011;61859;49.204;8.140;2022-08-16T03:17:51;4.70;;;4.30;;
73575;SDS011;61859;49.204;8.140;2022-08-16T03:20:17;4.77;;;4.20;;
73575;SDS011;61859;49.204;8.140;2022-08-16T03:22:43;5.17;;;4.47;;
73575;SDS011;61859;49.204;8.140;2022-08-16T03:25:10;5.40;;;4.53;;
73575;SDS011;61859;49.204;8.140;2022-08-16T03:27:37;6.10;;;5.27;;
73575;SDS011;61859;49.204;8.140;2022-08-16T03:30:05;4.63;;;4.20;;
73575;SDS011;61859;49.204;8.140;2022-08-16T03:32:52;5.37;;;4.87;;
73575;SDS011;61859;49.204;8.140;2022-08-16T03:35:19;4.87;;;4.40;;
73575;SDS011;61859;49.204;8.140;2022-08-16T03:37:47;5.20;;;4.77;;
73575;SDS011;61859;49.204;8.140;2022-08-16T03:40:13;6.50;;;4.50;;
73575;SDS011;61859;49.204;8.140;2022-08-16T03:42:39;5.33;;;4.40;;
73575;SDS011;61859;49.204;8.140;2022-08-16T03:45:06;5.77;;;5.00;;
73575;SDS011;61859;49.204;8.140;2022-08-16T03:47:32;4.83;;;4.40;;
73575;SDS011;61859;49.204;8.140;2022-08-16T03:49:58;5.33;;;4.83;;
73575;SDS011;61859;49.204;8.140;2022-08-16T03:52:24;5.10;;;4.67;;
73575;SDS011;61859;49.204;8.140;2022-08-16T03:54:50;5.53;;;4.80;;
73575;SDS011;61859;49.204;8.140;2022-08-16T03:57:17;5.10;;;4.60;;
73575;SDS011;61859;49.204;8.140;2022-08-16T03:59:42;5.20;;;4.70;;
73575;SDS011;61859;49.204;8.140;2022-08-16T04:02:08;5.40;;;4.97;;
73575;SDS011;61859;49.204;8.140;2022-08-16T04:04:35;5.37;;;4.87;;
73575;SDS011;61859;49.204;8.140;2022-08-16T04:07:02;8.17;;;4.47;;
73575;SDS011;61859;49.204;8.140;2022-08-16T04:09:32;4.83;;;4.27;;
73575;SDS011;61859;49.204;8.140;2022-08-16T04:11:57;6.50;;;4.80;;
73575;SDS011;61859;49.204;8.140;2022-08-16T04:14:23;5.87;;;4.83;;
73575;SDS011;61859;49.204;8.140;2022-08-16T04:16:50;4.80;;;4.40;;
73575;SDS011;61859;49.204;8.140;2022-08-16T04:19:16;5.47;;;4.97;;
73575;SDS011;61859;49.204;8.140;2022-08-16T04:21:41;5.00;;;4.57;;
73575;SDS011;61859;49.204;8.140;2022-08-16T04:24:07;5.30;;;4.80;;
73575;SDS011;61859;49.204;8.140;2022-08-16T04:26:33;5.10;;;4.70;;
73575;SDS011;61859;49.204;8.140;2022-08-16T04:28:59;11.50;;;5.13;;
73575;SDS011;61859;49.204;8.140;2022-08-16T04:31:26;5.10;;;4.60;;
73575;SDS011;61859;49.204;8.140;2022-08-16T04:33:52;5.13;;;4.70;;
73575;SDS011;61859;49.204;8.140;2022-08-16T04:36:18;5.20;;;4.70;;
73575;SDS011;61859;49.204;8.140;2022-08-16T04:38:43;5.37;;;4.87;;
73575;SDS011;61859;49.204;8.140;2022-08-16T04:41:09;5.73;;;4.97;;
73575;SDS011;61859;49.204;8.140;2022-08-16T04:43:34;5.27;;;4.77;;
73575;SDS011;61859;49.204;8.140;2022-08-16T04:46:02;5.37;;;4.83;;
73575;SDS011;61859;49.204;8.140;2022-08-16T04:48:28;7.57;;;4.80;;
73575;SDS011;61859;49.204;8.140;2022-08-16T04:50:54;5.27;;;4.77;;
73575;SDS011;61859;49.204;8.140;2022-08-16T04:53:20;5.00;;;4.60;;
73575;SDS011;61859;49.204;8.140;2022-08-16T04:55:46;6.97;;;4.80;;
73575;SDS011;61859;49.204;8.140;2022-08-16T04:58:11;6.20;;;5.00;;
73575;SDS011;61859;49.204;8.140;2022-08-16T05:00:37;6.93;;;5.00;;
73575;SDS011;61859;49.204;8.140;2022-08-16T05:03:07;5.87;;;5.03;;
73575;SDS011;61859;49.204;8.140;2022-08-16T05:05:35;5.90;;;4.80;;
73575;SDS011;61859;49.204;8.140;2022-08-16T05:08:03;6.33;;;5.07;;
73575;SDS011;61859;49.204;8.140;2022-08-16T05:10:29;5.07;;;4.67;;
73575;SDS011;61859;49.204;8.140;2022-08-16T05:12:56;6.53;;;5.03;;
73575;SDS011;61859;49.204;8.140;2022-08-16T05:15:22;5.13;;;4.73;;
73575;SDS011;61859;49.204;8.140;2022-08-16T05:17:47;5.50;;;4.83;;
73575;SDS011;61859;49.204;8.140;2022-08-16T05:20:13;6.57;;;4.73;;
73575;SDS011;61859;49.204;8.140;2022-08-16T05:22:39;5.73;;;5.17;;
73575;SDS011;61859;49.204;8.140;2022-08-16T05:25:06;5.93;;;5.33;;
73575;SDS011;61859;49.204;8.140;2022-08-16T05:27:34;5.83;;;5.30;;
73575;SDS011;61859;49.204;8.140;2022-08-16T05:30:00;5.70;;;5.20;;
73575;SDS011;61859;49.204;8.140;2022-08-16T05:32:25;5.23;;;4.83;;
73575;SDS011;61859;49.204;8.140;2022-08-16T05:34:51;6.30;;;5.70;;
73575;SDS011;61859;49.204;8.140;2022-08-16T05:37:17;8.37;;;6.13;;
73575;SDS011;61859;49.204;8.140;2022-08-16T05:39:42;6.47;;;5.60;;
73575;SDS011;61859;49.204;8.140;2022-08-16T05:42:08;6.37;;;5.73;;
73575;SDS011;61859;49.204;8.140;2022-08-16T05:44:34;6.43;;;5.40;;
73575;SDS011;61859;49.204;8.140;2022-08-16T05:47:00;7.33;;;5.73;;
73575;SDS011;61859;49.204;8.140;2022-08-16T05:49:26;6.07;;;5.57;;
73575;SDS011;61859;49.204;8.140;2022-08-16T05:51:53;6.27;;;5.77;;
73575;SDS011;61859;49.204;8.140;2022-08-16T05:54:19;5.53;;;5.13;;
73575;SDS011;61859;49.204;8.140;2022-08-16T05:56:45;5.93;;;5.43;;
73575;SDS011;61859;49.204;8.140;2022-08-16T05:59:12;6.80;;;5.47;;
73575;SDS011;61859;49.204;8.140;2022-08-16T06:01:39;5.67;;;5.07;;
73575;SDS011;61859;49.204;8.140;2022-08-16T06:04:07;5.53;;;5.13;;
73575;SDS011;61859;49.204;8.140;2022-08-16T06:06:33;6.00;;;5.40;;
73575;SDS011;61859;49.204;8.140;2022-08-16T06:08:58;7.23;;;6.53;;
73575;SDS011;61859;49.204;8.140;2022-08-16T06:11:24;8.17;;;5.33;;
73575;SDS011;61859;49.204;8.140;2022-08-16T06:13:49;6.13;;;5.57;;
73575;SDS011;61859;49.204;8.140;2022-08-16T06:16:15;7.93;;;6.17;;
73575;SDS011;61859;49.204;8.140;2022-08-16T06:18:41;6.63;;;5.37;;
73575;SDS011;61859;49.204;8.140;2022-08-16T06:21:09;6.37;;;5.77;;
73575;SDS011;61859;49.204;8.140;2022-08-16T06:23:35;6.90;;;5.80;;
73575;SDS011;61859;49.204;8.140;2022-08-16T06:26:00;7.77;;;5.57;;
73575;SDS011;61859;49.204;8.140;2022-08-16T06:28:26;5.93;;;5.33;;
73575;SDS011;61859;49.204;8.140;2022-08-16T06:30:52;6.70;;;5.37;;
73575;SDS011;61859;49.204;8.140;2022-08-16T06:33:18;5.53;;;5.07;;
73575;SDS011;61859;49.204;8.140;2022-08-16T06:35:44;7.93;;;5.93;;
73575;SDS011;61859;49.204;8.140;2022-08-16T06:38:10;6.17;;;5.57;;
73575;SDS011;61859;49.204;8.140;2022-08-16T06:40:36;6.57;;;5.97;;
73575;SDS011;61859;49.204;8.140;2022-08-16T06:43:02;5.90;;;5.30;;
73575;SDS011;61859;49.204;8.140;2022-08-16T06:45:28;6.47;;;5.10;;
73575;SDS011;61859;49.204;8.140;2022-08-16T06:47:54;6.20;;;5.60;;
73575;SDS011;61859;49.204;8.140;2022-08-16T06:50:19;6.10;;;5.50;;
73575;SDS011;61859;49.204;8.140;2022-08-16T06:52:46;5.77;;;5.27;;
73575;SDS011;61859;49.204;8.140;2022-08-16T06:55:12;6.83;;;4.97;;
73575;SDS011;61859;49.204;8.140;2022-08-16T06:57:39;5.57;;;5.07;;
73575;SDS011;61859;49.204;8.140;2022-08-16T07:00:07;4.87;;;4.43;;
73575;SDS011;61859;49.204;8.140;2022-08-16T07:02:38;8.83;;;4.87;;
73575;SDS011;61859;49.204;8.140;2022-08-16T07:05:08;5.70;;;5.20;;
73575;SDS011;61859;49.204;8.140;2022-08-16T07:07:35;7.50;;;5.33;;
73575;SDS011;61859;49.204;8.140;2022-08-16T07:10:02;5.20;;;4.73;;
73575;SDS011;61859;49.204;8.140;2022-08-16T07:12:29;5.20;;;4.80;;
73575;SDS011;61859;49.204;8.140;2022-08-16T07:14:55;5.87;;;4.87;;
73575;SDS011;61859;49.204;8.140;2022-08-16T07:17:21;6.53;;;5.20;;
73575;SDS011;61859;49.204;8.140;2022-08-16T07:19:48;5.50;;;5.00;;
73575;SDS011;61859;49.204;8.140;2022-08-16T07:22:14;6.53;;;5.30;;
73575;SDS011;61859;49.204;8.140;2022-08-16T07:24:41;7.80;;;5.33;;
73575;SDS011;61859;49.204;8.140;2022-08-16T07:27:08;6.20;;;5.03;;
73575;SDS011;61859;49.204;8.140;2022-08-16T07:29:34;5.97;;;5.07;;
73575;SDS011;61859;49.204;8.140;2022-08-16T07:32:00;5.00;;;4.60;;
73575;SDS011;61859;49.204;8.140;2022-08-16T07:34:25;5.97;;;5.28;;
73575;SDS011;61859;49.204;8.140;2022-08-16T07:36:51;6.18;;;4.88;;
73575;SDS011;61859;49.204;8.140;2022-08-16T07:39:17;6.22;;;4.70;;
73575;SDS011;61859;49.204;8.140;2022-08-16T07:41:43;8.65;;;5.18;;
73575;SDS011;61859;49.204;8.140;2022-08-16T07:44:09;6.00;;;4.72;;
73575;SDS011;61859;49.204;8.140;2022-08-16T07:46:34;5.50;;;4.90;;
73575;SDS011;61859;49.204;8.140;2022-08-16T07:49:00;5.13;;;4.60;;
73575;SDS011;61859;49.204;8.140;2022-08-16T07:51:26;4.95;;;4.47;;
73575;SDS011;61859;49.204;8.140;2022-08-16T07:53:52;4.78;;;4.45;;
73575;SDS011;61859;49.204;8.140;2022-08-16T07:56:17;5.53;;;5.05;;
73575;SDS011;61859;49.204;8.140;2022-08-16T07:58:43;4.72;;;4.32;;
73575;SDS011;61859;49.204;8.140;2022-08-16T08:01:09;6.28;;;4.60;;
73575;SDS011;61859;49.204;8.140;2022-08-16T08:03:35;4.47;;;4.07;;
73575;SDS011;61859;49.204;8.140;2022-08-16T08:06:01;7.43;;;4.72;;
73575;SDS011;61859;49.204;8.140;2022-08-16T08:08:27;4.90;;;4.40;;
73575;SDS011;61859;49.204;8.140;2022-08-16T08:10:53;4.60;;;4.28;;
73575;SDS011;61859;49.204;8.140;2022-08-16T08:13:19;4.60;;;4.20;;
73575;SDS011;61859;49.204;8.140;2022-08-16T08:15:46;5.30;;;4.40;;
73575;SDS011;61859;49.204;8.140;2022-08-16T08:18:11;4.53;;;4.00;;
73575;SDS011;61859;49.204;8.140;2022-08-16T08:20:37;5.90;;;4.30;;
73575;SDS011;61859;49.204;8.140;2022-08-16T08:23:09;5.82;;;4.30;;
73575;SDS011;61859;49.204;8.140;2022-08-16T08:25:37;4.78;;;4.20;;
73575;SDS011;61859;49.204;8.140;2022-08-16T08:28:03;9.20;;;4.30;;
73575;SDS011;61859;49.204;8.140;2022-08-16T08:30:29;5.75;;;4.28;;
73575;SDS011;61859;49.204;8.140;2022-08-16T08:32:56;6.50;;;4.45;;
73575;SDS011;61859;49.204;8.140;2022-08-16T08:35:21;5.10;;;4.25;;
73575;SDS011;61859;49.204;8.140;2022-08-16T08:37:47;5.43;;;4.32;;
73575;SDS011;61859;49.204;8.140;2022-08-16T08:40:13;5.40;;;4.35;;
73575;SDS011;61859;49.204;8.140;2022-08-16T08:42:38;5.97;;;4.30;;
73575;SDS011;61859;49.204;8.140;2022-08-16T08:45:08;4.47;;;4.07;;
73575;SDS011;61859;49.204;8.140;2022-08-16T08:47:35;4.82;;;4.40;;
73575;SDS011;61859;49.204;8.140;2022-08-16T08:50:01;4.45;;;4.05;;
73575;SDS011;61859;49.204;8.140;2022-08-16T08:52:28;4.50;;;4.10;;
73575;SDS011;61859;49.204;8.140;2022-08-16T08:54:54;5.55;;;4.60;;
73575;SDS011;61859;49.204;8.140;2022-08-16T08:57:19;6.13;;;4.55;;
73575;SDS011;61859;49.204;8.140;2022-08-16T08:59:46;4.68;;;4.13;;
73575;SDS011;61859;49.204;8.140;2022-08-16T09:02:12;7.50;;;4.22;;
73575;SDS011;61859;49.204;8.140;2022-08-16T09:04:41;5.38;;;3.90;;
73575;SDS011;61859;49.204;8.140;2022-08-16T09:07:07;5.30;;;3.83;;
73575;SDS011;61859;49.204;8.140;2022-08-16T09:09:33;3.70;;;3.40;;
73575;SDS011;61859;49.204;8.140;2022-08-16T09:11:59;4.10;;;3.70;;
73575;SDS011;61859;49.204;8.140;2022-08-16T09:14:26;5.28;;;4.07;;
73575;SDS011;61859;49.204;8.140;2022-08-16T09:16:51;5.60;;;3.55;;
73575;SDS011;61859;49.204;8.140;2022-08-16T09:19:17;4.95;;;3.53;;
73575;SDS011;61859;49.204;8.140;2022-08-16T09:21:43;5.35;;;3.78;;
73575;SDS011;61859;49.204;8.140;2022-08-16T09:24:08;3.83;;;3.50;;
73575;SDS011;61859;49.204;8.140;2022-08-16T09:26:34;3.75;;;3.35;;
73575;SDS011;61859;49.204;8.140;2022-08-16T09:28:59;4.38;;;3.70;;
73575;SDS011;61859;49.204;8.140;2022-08-16T09:31:25;5.15;;;3.80;;
73575;SDS011;61859;49.204;8.140;2022-08-16T09:33:51;3.80;;;3.50;;
73575;SDS011;61859;49.204;8.140;2022-08-16T09:36:19;5.43;;;3.70;;
73575;SDS011;61859;49.204;8.140;2022-08-16T09:38:45;4.10;;;3.70;;
73575;SDS011;61859;49.204;8.140;2022-08-16T09:41:10;4.43;;;3.38;;
73575;SDS011;61859;49.204;8.140;2022-08-16T09:43:36;3.72;;;3.42;;
73575;SDS011;61859;49.204;8.140;2022-08-16T09:46:03;5.65;;;3.92;;
73575;SDS011;61859;49.204;8.140;2022-08-16T09:48:31;4.00;;;3.58;;
73575;SDS011;61859;49.204;8.140;2022-08-16T09:51:03;4.10;;;3.78;;
73575;SDS011;61859;49.204;8.140;2022-08-16T09:53:29;4.43;;;3.97;;
73575;SDS011;61859;49.204;8.140;2022-08-16T09:55:56;3.92;;;3.60;;
73575;SDS011;61859;49.204;8.140;2022-08-16T09:58:23;5.88;;;4.15;;
73575;SDS011;61859;49.204;8.140;2022-08-16T10:00:50;4.10;;;3.67;;
73575;SDS011;61859;49.204;8.140;2022-08-16T10:03:17;4.75;;;3.90;;
73575;SDS011;61859;49.204;8.140;2022-08-16T10:05:44;4.18;;;3.88;;
73575;SDS011;61859;49.204;8.140;2022-08-16T10:08:11;3.75;;;3.45;;
73575;SDS011;61859;49.204;8.140;2022-08-16T10:10:37;3.85;;;3.53;;
73575;SDS011;61859;49.204;8.140;2022-08-16T10:13:06;3.60;;;3.30;;
73575;SDS011;61859;49.204;8.140;2022-08-16T10:15:43;4.28;;;3.47;;
73575;SDS011;61859;49.204;8.140;2022-08-16T10:18:11;3.85;;;3.08;;
73575;SDS011;61859;49.204;8.140;2022-08-16T10:20:39;7.03;;;3.35;;
73575;SDS011;61859;49.204;8.140;2022-08-16T10:23:08;4.22;;;3.15;;
73575;SDS011;61859;49.204;8.140;2022-08-16T10:25:39;3.90;;;3.60;;
73575;SDS011;61859;49.204;8.140;2022-08-16T10:28:07;5.00;;;3.90;;
73575;SDS011;61859;49.204;8.140;2022-08-16T10:30:33;4.63;;;3.58;;
73575;SDS011;61859;49.204;8.140;2022-08-16T10:32:59;8.48;;;3.63;;
73575;SDS011;61859;49.204;8.140;2022-08-16T10:35:25;3.58;;;3.28;;
73575;SDS011;61859;49.204;8.140;2022-08-16T10:37:50;4.00;;;3.17;;
73575;SDS011;61859;49.204;8.140;2022-08-16T10:40:17;3.70;;;3.20;;
73575;SDS011;61859;49.204;8.140;2022-08-16T10:42:43;5.55;;;3.40;;
73575;SDS011;61859;49.204;8.140;2022-08-16T10:45:10;3.08;;;2.88;;
73575;SDS011;61859;49.204;8.140;2022-08-16T10:47:36;3.40;;;3.10;;
73575;SDS011;61859;49.204;8.140;2022-08-16T10:50:03;4.78;;;3.47;;
73575;SDS011;61859;49.204;8.140;2022-08-16T10:52:30;6.93;;;3.80;;
73575;SDS011;61859;49.204;8.140;2022-08-16T10:54:57;5.63;;;3.42;;
73575;SDS011;61859;49.204;8.140;2022-08-16T10:57:24;5.05;;;3.25;;
73575;SDS011;61859;49.204;8.140;2022-08-16T10:59:51;5.07;;;3.22;;
73575;SDS011;61859;49.204;8.140;2022-08-16T11:02:17;4.13;;;2.85;;
73575;SDS011;61859;49.204;8.140;2022-08-16T11:04:43;4.90;;;2.92;;
73575;SDS011;61859;49.204;8.140;2022-08-16T11:07:09;3.83;;;3.30;;
73575;SDS011;61859;49.204;8.140;2022-08-16T11:09:34;3.40;;;2.90;;
73575;SDS011;61859;49.204;8.140;2022-08-16T11:12:00;3.85;;;3.20;;
73575;SDS011;61859;49.204;8.140;2022-08-16T11:14:25;3.88;;;2.88;;
73575;SDS011;61859;49.204;8.140;2022-08-16T11:16:51;3.80;;;3.35;;
73575;SDS011;61859;49.204;8.140;2022-08-16T11:19:17;6.53;;;3.40;;
73575;SDS011;61859;49.204;8.140;2022-08-16T11:21:43;3.60;;;3.10;;
73575;SDS011;61859;49.204;8.140;2022-08-16T11:24:09;4.18;;;3.40;;
73575;SDS011;61859;49.204;8.140;2022-08-16T11:26:36;5.18;;;3.30;;
73575;SDS011;61859;49.204;8.140;2022-08-16T11:29:01;3.92;;;3.40;;
73575;SDS011;61859;49.204;8.140;2022-08-16T11:31:27;4.88;;;3.30;;
73575;SDS011;61859;49.204;8.140;2022-08-16T11:33:53;5.00;;;3.65;;
73575;SDS011;61859;49.204;8.140;2022-08-16T11:36:18;6.85;;;3.15;;
73575;SDS011;61859;49.204;8.140;2022-08-16T11:38:45;4.75;;;3.33;;
73575;SDS011;61859;49.204;8.140;2022-08-16T11:41:10;4.50;;;3.38;;
73575;SDS011;61859;49.204;8.140;2022-08-16T11:43:37;4.57;;;3.28;;
73575;SDS011;61859;49.204;8.140;2022-08-16T11:46:06;8.18;;;3.47;;
73575;SDS011;61859;49.204;8.140;2022-08-16T11:48:35;5.22;;;3.25;;
73575;SDS011;61859;49.204;8.140;2022-08-16T11:51:01;4.10;;;3.20;;
73575;SDS011;61859;49.204;8.140;2022-08-16T11:53:28;4.63;;;3.17;;
73575;SDS011;61859;49.204;8.140;2022-08-16T11:55:56;3.35;;;3.05;;
73575;SDS011;61859;49.204;8.140;2022-08-16T11:58:23;5.13;;;3.10;;
73575;SDS011;61859;49.204;8.140;2022-08-16T12:00:51;3.30;;;2.85;;
73575;SDS011;61859;49.204;8.140;2022-08-16T12:03:18;4.07;;;2.90;;
73575;SDS011;61859;49.204;8.140;2022-08-16T12:05:45;3.20;;;2.90;;
73575;SDS011;61859;49.204;8.140;2022-08-16T12:08:11;3.30;;;3.00;;
73575;SDS011;61859;49.204;8.140;2022-08-16T12:10:39;4.30;;;3.08;;
73575;SDS011;61859;49.204;8.140;2022-08-16T12:13:06;3.70;;;3.30;;
73575;SDS011;61859;49.204;8.140;2022-08-16T12:15:32;5.03;;;3.00;;
73575;SDS011;61859;49.204;8.140;2022-08-16T12:17:58;3.45;;;3.08;;
73575;SDS011;61859;49.204;8.140;2022-08-16T12:20:25;3.15;;;2.85;;
73575;SDS011;61859;49.204;8.140;2022-08-16T12:22:54;2.70;;;2.50;;
73575;SDS011;61859;49.204;8.140;2022-08-16T12:25:20;3.53;;;2.80;;
73575;SDS011;61859;49.204;8.140;2022-08-16T12:27:54;2.83;;;2.63;;
73575;SDS011;61859;49.204;8.140;2022-08-16T12:30:28;4.05;;;3.08;;
73575;SDS011;61859;49.204;8.140;2022-08-16T12:32:57;2.80;;;2.60;;
73575;SDS011;61859;49.204;8.140;2022-08-16T12:35:24;4.72;;;2.58;;
73575;SDS011;61859;49.204;8.140;2022-08-16T12:37:50;2.95;;;2.60;;
73575;SDS011;61859;49.204;8.140;2022-08-16T12:40:19;2.55;;;2.35;;
73575;SDS011;61859;49.204;8.140;2022-08-16T12:42:47;2.33;;;2.17;;
73575;SDS011;61859;49.204;8.140;2022-08-16T12:45:17;2.55;;;2.38;;
73575;SDS011;61859;49.204;8.140;2022-08-16T12:47:44;2.50;;;2.30;;
73575;SDS011;61859;49.204;8.140;2022-08-16T12:50:29;3.03;;;2.65;;
73575;SDS011;61859;49.204;8.140;2022-08-16T12:52:55;2.65;;;2.45;;
73575;SDS011;61859;49.204;8.140;2022-08-16T12:55:21;2.60;;;2.40;;
73575;SDS011;61859;49.204;8.140;2022-08-16T12:57:47;2.67;;;2.47;;
73575;SDS011;61859;49.204;8.140;2022-08-16T13:00:17;2.63;;;2.42;;
73575;SDS011;61859;49.204;8.140;2022-08-16T13:02:43;3.45;;;2.40;;
73575;SDS011;61859;49.204;8.140;2022-08-16T13:05:10;2.70;;;2.50;;
73575;SDS011;61859;49.204;8.140;2022-08-16T13:07:36;2.47;;;2.28;;
73575;SDS011;61859;49.204;8.140;2022-08-16T13:10:03;2.75;;;2.38;;
73575;SDS011;61859;49.204;8.140;2022-08-16T13:12:36;3.15;;;2.60;;
73575;SDS011;61859;49.204;8.140;2022-08-16T13:15:04;3.53;;;2.70;;
73575;SDS011;61859;49.204;8.140;2022-08-16T13:17:33;3.00;;;2.80;;
73575;SDS011;61859;49.204;8.140;2022-08-16T13:19:59;3.38;;;2.50;;
73575;SDS011;61859;49.204;8.140;2022-08-16T13:22:25;2.67;;;2.47;;
73575;SDS011;61859;49.204;8.140;2022-08-16T13:24:51;2.80;;;2.60;;
73575;SDS011;61859;49.204;8.140;2022-08-16T13:27:17;2.70;;;2.50;;
73575;SDS011;61859;49.204;8.140;2022-08-16T13:29:43;3.67;;;2.70;;
73575;SDS011;61859;49.204;8.140;2022-08-16T13:32:09;2.67;;;2.47;;
73575;SDS011;61859;49.204;8.140;2022-08-16T13:34:35;3.22;;;2.30;;
73575;SDS011;61859;49.204;8.140;2022-08-16T13:37:00;2.95;;;2.30;;
73575;SDS011;61859;49.204;8.140;2022-08-16T13:39:26;2.53;;;2.33;;
73575;SDS011;61859;49.204;8.140;2022-08-16T13:41:52;4.47;;;2.35;;
73575;SDS011;61859;49.204;8.140;2022-08-16T13:44:18;2.67;;;2.47;;
73575;SDS011;61859;49.204;8.140;2022-08-16T13:46:44;3.97;;;2.40;;
73575;SDS011;61859;49.204;8.140;2022-08-16T13:49:11;3.90;;;2.38;;
73575;SDS011;61859;49.204;8.140;2022-08-16T13:51:37;3.47;;;2.17;;
73575;SDS011;61859;49.204;8.140;2022-08-16T13:54:03;2.47;;;2.28;;
73575;SDS011;61859;49.204;8.140;2022-08-16T13:56:30;2.50;;;2.30;;
73575;SDS011;61859;49.204;8.140;2022-08-16T13:58:58;2.00;;;1.90;;
73575;SDS011;61859;49.204;8.140;2022-08-16T14:01:24;2.67;;;2.42;;
73575;SDS011;61859;49.204;8.140;2022-08-16T14:03:49;1.90;;;1.80;;
73575;SDS011;61859;49.204;8.140;2022-08-16T14:06:15;3.38;;;2.20;;
73575;SDS011;61859;49.204;8.140;2022-08-16T14:08:41;4.63;;;2.40;;
73575;SDS011;61859;49.204;8.140;2022-08-16T14:11:08;2.30;;;2.10;;
73575;SDS011;61859;49.204;8.140;2022-08-16T14:13:35;2.40;;;2.20;;
73575;SDS011;61859;49.204;8.140;2022-08-16T14:16:01;2.35;;;2.15;;
73575;SDS011;61859;49.204;8.140;2022-08-16T14:18:27;2.40;;;2.20;;
73575;SDS011;61859;49.204;8.140;2022-08-16T14:20:52;2.35;;;2.15;;
73575;SDS011;61859;49.204;8.140;2022-08-16T14:23:18;2.60;;;2.17;;
73575;SDS011;61859;49.204;8.140;2022-08-16T14:25:43;2.88;;;2.10;;
73575;SDS011;61859;49.204;8.140;2022-08-16T14:28:09;2.13;;;2.03;;
73575;SDS011;61859;49.204;8.140;2022-08-16T14:30:35;2.85;;;2.13;;
73575;SDS011;61859;49.204;8.140;2022-08-16T14:33:02;2.95;;;2.38;;
73575;SDS011;61859;49.204;8.140;2022-08-16T14:35:29;2.30;;;2.20;;
73575;SDS011;61859;49.204;8.140;2022-08-16T14:37:56;2.30;;;2.10;;
73575;SDS011;61859;49.204;8.140;2022-08-16T14:40:22;2.20;;;2.10;;
73575;SDS011;61859;49.204;8.140;2022-08-16T14:42:48;5.63;;;2.47;;
73575;SDS011;61859;49.204;8.140;2022-08-16T14:45:17;2.40;;;2.20;;
73575;SDS011;61859;49.204;8.140;2022-08-16T14:47:45;3.50;;;2.30;;